Nkishka No 2, AK

11:49 PM AKST on December 05, 2016 (GMT -0900)
McGahan | | Change Station

Elev 159 ft 60.73 °N, 151.30 °W | Updated 18 seconds ago

Light Snow
Light Snow Mist
18.0 °F
Feels Like 5 °F
N
11.5
Wind Variable Wind from NE
Gusts 11.5 mph

Today
High -- | Low -- °F
--% Chance of Precip.
Yesterday
High -- | Low -- °F
Precip. -- in
Pressure 30.24 in
Visibility 2.5 miles
Clouds Overcast 3700 ft
Windchill 5 °F
Dew Point 15 °F
Humidity 87%
Rainfall 0.00 in
Snow Depth Not available.
9:56 AM 3:56 PM
Waxing Crescent, 39% visible
SPECI PAEN 060839Z AUTO 04013KT 2 1/2SM -SN BR OVC037 M10/M12 A3024 RMK AO2 UPE0757SNB0757 P0000 T11001122 TSNO
Pressure 30.24 in
Visibility 2.5 miles
Clouds Overcast 3700 ft
Windchill 5 °F
Dew Point 15 °F
Humidity 87%
Rainfall 0.00 in
Snow Depth Not available.
9:56 AM 3:56 PM
Waxing Crescent, 39% visible
SPECI PAEN 060839Z AUTO 04013KT 2 1/2SM -SN BR OVC037 M10/M12 A3024 RMK AO2 UPE0757SNB0757 P0000 T11001122 TSNO

10-Day Weather Forecast

Almanac

Astronomy

Dec. 05, 2016 Rise Set
Actual Time
Civil Twilight
Nautical Twilight
Astronomical Twilight
Moon
Length of Visible Light
Length of Day
Tomorrow will be .
, % of the Moon is Illuminated

Today's Extremes

State Highs State Lows

Community

WunderPhotos

Upload Photos

1,955,930 photos uploaded!

WunderBlog® & News

Nearby

Air Quality

  Air Quality AQ Index Pollutant
Not available.

Snow Depth

Station Depth Elevation

Earthquake Activity

City Distance Mag. Time & Date
Minimum magnitude displayed is 2.5.

Coastal Water Temperatures

Place Temperature

Stations

Nearby Weather Stations

Station Location Temp. Windchill Dew Point Humidity Wind Precip. Elev Updated Type
                   

Watches & Warnings

There are currently no watches in effect.